createdAt,value
2019-05-03T00:03:27.451Z,4.57
2019-05-03T00:08:22.024Z,3.27
2019-05-03T00:13:16.618Z,3.10
2019-05-03T00:18:11.730Z,4.30
2019-05-03T00:23:06.713Z,5.63
2019-05-03T00:28:01.842Z,5.93
2019-05-03T00:32:56.712Z,6.83
2019-05-03T00:38:12.338Z,7.03
2019-05-03T00:43:06.872Z,6.57
2019-05-03T00:48:02.001Z,6.97
2019-05-03T00:52:56.629Z,6.13
2019-05-03T00:57:52.143Z,5.20
2019-05-03T01:02:46.880Z,5.20
2019-05-03T01:07:42.225Z,5.20
2019-05-03T01:12:37.056Z,5.60
2019-05-03T01:17:33.118Z,5.40
2019-05-03T01:22:27.695Z,5.17
2019-05-03T01:27:22.462Z,6.93
2019-05-03T01:32:17.114Z,5.97
2019-05-03T01:37:11.986Z,5.13
2019-05-03T01:42:06.701Z,5.00
2019-05-03T01:47:02.980Z,7.73
2019-05-03T01:52:12.786Z,4.50
2019-05-03T01:57:07.516Z,4.40
2019-05-03T02:02:19.598Z,4.87
2019-05-03T02:07:14.245Z,4.13
2019-05-03T02:12:08.923Z,4.80
2019-05-03T02:17:03.504Z,3.87
2019-05-03T02:21:58.095Z,3.43
2019-05-03T02:26:53.002Z,3.10
2019-05-03T02:31:47.846Z,3.07
2019-05-03T02:36:42.972Z,3.83
2019-05-03T02:41:37.674Z,5.87
2019-05-03T02:46:45.266Z,5.37
2019-05-03T02:51:38.924Z,6.17
2019-05-03T02:56:35.733Z,6.50
2019-05-03T03:01:30.745Z,6.20
2019-05-03T03:06:28.107Z,5.93
2019-05-03T03:11:26.201Z,6.23
2019-05-03T03:16:24.996Z,9.67
2019-05-03T03:21:26.031Z,8.60
2019-05-03T03:26:36.439Z,9.13
2019-05-03T03:31:48.160Z,9.10
2019-05-03T03:37:03.725Z,7.43
2019-05-03T03:41:55.574Z,8.67
2019-05-03T03:46:51.142Z,10.03
2019-05-03T03:51:51.944Z,8.37
2019-05-03T03:57:03.885Z,6.40
2019-05-03T04:01:55.059Z,5.90
2019-05-03T04:06:56.098Z,6.87
2019-05-03T04:11:49.747Z,5.77
2019-05-03T04:17:05.672Z,4.73
2019-05-03T04:21:59.886Z,4.07
2019-05-03T04:27:18.753Z,5.90
2019-05-03T04:32:05.957Z,4.90
2019-05-03T04:37:00.871Z,3.57
2019-05-03T04:41:55.991Z,3.90
2019-05-03T04:46:50.840Z,4.07
2019-05-03T04:51:46.484Z,2.67
2019-05-03T04:56:41.485Z,2.43
2019-05-03T05:01:36.068Z,2.27
2019-05-03T05:06:30.655Z,3.23
2019-05-03T05:11:26.347Z,2.67
2019-05-03T05:16:21.332Z,1.97
2019-05-03T05:21:17.609Z,2.53
2019-05-03T05:26:14.459Z,2.83
2019-05-03T05:31:09.264Z,3.03
2019-05-03T05:36:04.849Z,1.67
2019-05-03T05:40:59.593Z,2.37
2019-05-03T05:45:55.688Z,1.30
2019-05-03T05:50:51.195Z,1.83
2019-05-03T05:55:51.197Z,2.40
2019-05-03T06:00:47.412Z,8.17
2019-05-03T06:05:42.007Z,2.83
2019-05-03T06:10:56.031Z,2.67
2019-05-03T06:15:55.097Z,2.67
2019-05-03T06:21:07.250Z,2.17
2019-05-03T06:26:02.295Z,2.57
2019-05-03T06:31:02.592Z,1.93
2019-05-03T06:35:57.437Z,1.40
2019-05-03T06:40:52.109Z,1.10
2019-05-03T06:45:50.507Z,1.60
2019-05-03T06:50:45.274Z,1.43
2019-05-03T06:55:40.087Z,5.10
2019-05-03T07:00:40.003Z,2.73
2019-05-03T07:05:54.857Z,2.90
2019-05-03T07:10:57.013Z,0.80
2019-05-03T07:15:52.026Z,0.43
2019-05-03T07:20:48.331Z,0.63
2019-05-03T07:25:44.797Z,1.67
2019-05-03T07:30:39.262Z,0.70
2019-05-03T07:35:35.332Z,0.70
2019-05-03T07:40:30.971Z,0.77
2019-05-03T07:45:26.271Z,1.43
2019-05-03T07:50:21.631Z,1.13
2019-05-03T07:55:17.849Z,1.40
2019-05-03T08:00:15.044Z,1.03
2019-05-03T08:05:09.844Z,1.30
2019-05-03T08:10:07.114Z,1.40
2019-05-03T08:15:01.775Z,2.43
2019-05-03T08:19:56.435Z,0.77
2019-05-03T08:24:51.059Z,0.40
2019-05-03T08:29:45.642Z,0.80
2019-05-03T08:34:42.232Z,1.93
2019-05-03T08:39:36.948Z,1.30
2019-05-03T08:44:31.821Z,1.63
2019-05-03T08:49:26.469Z,0.90
2019-05-03T08:54:21.052Z,0.97
2019-05-03T08:59:26.775Z,1.30
2019-05-03T09:04:12.422Z,5.07
2019-05-03T09:09:10.554Z,6.97
2019-05-03T09:14:07.323Z,2.50
2019-05-03T09:19:01.897Z,1.97
2019-05-03T09:23:56.697Z,1.00
2019-05-03T09:28:51.346Z,1.40
2019-05-03T09:33:46.090Z,1.43
2019-05-03T09:38:41.022Z,2.27
2019-05-03T09:43:35.764Z,1.23
2019-05-03T09:48:30.434Z,2.00
2019-05-03T09:53:26.695Z,1.27
2019-05-03T09:58:21.291Z,0.90
2019-05-03T10:03:16.011Z,4.10
2019-05-03T10:08:10.587Z,0.93
2019-05-03T10:13:14.375Z,2.57
2019-05-03T10:18:01.617Z,5.43
2019-05-03T10:22:57.925Z,1.80
2019-05-03T10:27:52.505Z,1.07
2019-05-03T10:32:48.987Z,1.83
2019-05-03T10:37:45.348Z,0.93
2019-05-03T10:42:40.137Z,1.27
2019-05-03T10:47:35.041Z,1.40
2019-05-03T10:52:38.358Z,5.03
2019-05-03T10:57:35.675Z,1.90
2019-05-03T11:02:45.363Z,1.50
2019-05-03T11:07:40.144Z,1.20
2019-05-03T11:12:34.843Z,1.80
2019-05-03T11:17:31.536Z,2.57
2019-05-03T11:22:26.138Z,1.77
2019-05-03T11:27:22.482Z,0.90
2019-05-03T11:32:35.389Z,1.73
2019-05-03T11:37:41.170Z,0.30
2019-05-03T11:42:35.772Z,0.47
2019-05-03T11:47:30.373Z,0.80
2019-05-03T11:52:25.795Z,1.40
2019-05-03T11:57:28.242Z,0.80
2019-05-03T12:02:28.917Z,0.97
2019-05-03T12:07:39.085Z,0.60
2019-05-03T12:12:39.705Z,0.77
2019-05-03T12:17:36.373Z,1.13
2019-05-03T12:22:31.727Z,2.50
2019-05-03T12:27:26.748Z,1.07
2019-05-03T12:32:21.347Z,2.40
2019-05-03T12:37:15.956Z,1.77
2019-05-03T12:42:11.240Z,2.90
2019-05-03T12:47:06.237Z,3.30
2019-05-03T12:52:00.823Z,5.27
2019-05-03T12:56:56.096Z,5.93
2019-05-03T13:01:55.716Z,4.70
2019-05-03T13:07:08.496Z,8.63
2019-05-03T13:12:05.436Z,5.57
2019-05-03T13:16:59.793Z,6.17
2019-05-03T13:21:55.596Z,5.97
2019-05-03T13:26:50.529Z,7.80
2019-05-03T13:31:58.417Z,8.20
2019-05-03T13:36:41.431Z,6.43
2019-05-03T13:41:36.105Z,7.33
2019-05-03T13:46:30.865Z,6.40
2019-05-03T13:51:25.548Z,8.43
2019-05-03T13:56:20.156Z,5.30
2019-05-03T14:01:14.906Z,5.33
2019-05-03T14:06:09.674Z,4.60
2019-05-03T14:11:04.971Z,6.47
2019-05-03T14:16:05.942Z,7.00
2019-05-03T14:21:06.022Z,5.97
2019-05-03T14:26:01.520Z,7.33
2019-05-03T14:30:56.204Z,5.33
2019-05-03T14:35:50.815Z,3.83
2019-05-03T14:40:47.337Z,3.70
2019-05-03T14:45:42.087Z,4.47
2019-05-03T14:50:36.741Z,3.07
2019-05-03T14:55:45.856Z,4.97
2019-05-03T15:00:42.098Z,3.87
2019-05-03T15:05:36.770Z,3.97
2019-05-03T15:10:31.613Z,6.33
2019-05-03T15:15:29.060Z,4.20
2019-05-03T15:20:25.513Z,5.33
2019-05-03T15:25:20.343Z,3.93
2019-05-03T15:30:15.730Z,5.07
2019-05-03T15:35:10.596Z,6.20
2019-05-03T15:40:08.153Z,4.73
2019-05-03T15:45:14.698Z,6.17
2019-05-03T15:50:10.607Z,5.93
2019-05-03T15:55:09.074Z,4.80
2019-05-03T16:00:05.686Z,4.13
2019-05-03T16:05:00.319Z,5.87
2019-05-03T16:09:55.445Z,5.23
2019-05-03T16:14:52.634Z,4.77
2019-05-03T16:19:47.837Z,4.73
2019-05-03T16:24:42.442Z,4.53
2019-05-03T16:29:37.021Z,5.90
2019-05-03T16:34:31.640Z,8.57
2019-05-03T16:39:26.982Z,9.67
2019-05-03T16:44:22.012Z,8.47
2019-05-03T16:49:16.593Z,7.87
2019-05-03T16:54:11.194Z,8.13
2019-05-03T16:59:05.909Z,10.17
2019-05-03T17:04:02.185Z,7.77
2019-05-03T17:09:05.216Z,9.63
2019-05-03T17:13:59.870Z,7.20
2019-05-03T17:18:55.167Z,6.97
2019-05-03T17:23:50.052Z,8.37
2019-05-03T17:28:44.896Z,8.63
2019-05-03T17:33:50.719Z,10.20
2019-05-03T17:38:35.759Z,8.57
2019-05-03T17:43:32.009Z,9.00
2019-05-03T17:48:26.613Z,9.30
2019-05-03T17:53:22.845Z,9.57
2019-05-03T17:58:28.289Z,9.17
2019-05-03T18:03:25.781Z,7.80
2019-05-03T18:08:22.344Z,8.20
2019-05-03T18:13:16.958Z,9.40
2019-05-03T18:18:11.619Z,7.50
2019-05-03T18:23:06.284Z,7.13
2019-05-03T18:28:00.899Z,9.17
2019-05-03T18:32:55.505Z,7.97
2019-05-03T18:37:59.345Z,8.43
2019-05-03T18:42:55.579Z,7.53
2019-05-03T18:47:50.171Z,9.17
2019-05-03T18:52:44.976Z,9.33
2019-05-03T18:57:39.918Z,8.97
2019-05-03T19:02:34.519Z,9.07
2019-05-03T19:07:38.205Z,8.67
2019-05-03T19:12:32.545Z,10.07
2019-05-03T19:17:28.867Z,8.50
2019-05-03T19:22:24.956Z,10.33
2019-05-03T19:27:19.657Z,9.83
2019-05-03T19:32:14.976Z,11.30
2019-05-03T19:37:09.851Z,11.30
2019-05-03T19:42:04.433Z,8.57
2019-05-03T19:46:59.035Z,9.57
2019-05-03T19:51:54.536Z,9.87
2019-05-03T19:56:49.301Z,12.17
2019-05-03T20:01:51.388Z,11.73
2019-05-03T20:06:51.496Z,9.67
2019-05-03T20:11:46.136Z,10.53
2019-05-03T20:16:40.763Z,9.80
2019-05-03T20:21:36.231Z,12.33
2019-05-03T20:26:30.835Z,10.57
2019-05-03T20:31:25.431Z,11.40
2019-05-03T20:36:20.054Z,8.90
2019-05-03T20:41:14.959Z,11.13
2019-05-03T20:46:11.345Z,12.20
2019-05-03T20:51:05.925Z,12.00
2019-05-03T20:56:00.528Z,12.27
2019-05-03T21:00:55.208Z,10.63
2019-05-03T21:05:49.791Z,10.47
2019-05-03T21:10:44.940Z,11.07
2019-05-03T21:15:57.217Z,15.93
2019-05-03T21:20:58.988Z,12.97
2019-05-03T21:26:13.687Z,14.73
2019-05-03T21:31:08.298Z,12.03
2019-05-03T21:36:04.598Z,17.00
2019-05-03T21:40:59.399Z,11.87
2019-05-03T21:45:55.627Z,13.93
2019-05-03T21:50:50.213Z,12.50
2019-05-03T21:55:44.942Z,11.57
2019-05-03T22:00:46.956Z,15.07
2019-05-03T22:05:52.765Z,13.73
2019-05-03T22:10:37.859Z,11.23
2019-05-03T22:15:36.758Z,13.07
2019-05-03T22:20:34.921Z,14.57
2019-05-03T22:25:30.976Z,12.33
2019-05-03T22:30:26.865Z,13.83
2019-05-03T22:35:21.720Z,12.67
2019-05-03T22:40:16.302Z,12.17
2019-05-03T22:45:12.634Z,11.73
2019-05-03T22:50:07.367Z,11.77
2019-05-03T22:55:01.951Z,12.57
2019-05-03T22:59:56.610Z,13.43
2019-05-03T23:04:51.206Z,14.13
2019-05-03T23:09:45.784Z,16.20
2019-05-03T23:14:40.391Z,14.40
2019-05-03T23:19:36.625Z,13.87
2019-05-03T23:24:31.223Z,15.60
2019-05-03T23:29:25.800Z,13.83
2019-05-03T23:34:20.390Z,12.40
2019-05-03T23:39:14.998Z,13.60
2019-05-03T23:44:09.578Z,15.07
2019-05-03T23:49:04.223Z,12.17
2019-05-03T23:53:58.820Z,11.10
2019-05-03T23:58:55.031Z,12.67
